createdAt,value
2022-09-07T00:01:48.705Z,31.17
2022-09-07T00:04:15.481Z,32.05
2022-09-07T00:06:42.149Z,28.58
2022-09-07T00:09:09.015Z,28.77
2022-09-07T00:11:35.897Z,27.10
2022-09-07T00:14:02.757Z,27.05
2022-09-07T00:16:30.474Z,25.58
2022-09-07T00:18:59.261Z,28.23
2022-09-07T00:21:26.638Z,16.92
2022-09-07T00:23:53.462Z,17.05
2022-09-07T00:26:28.279Z,16.45
2022-09-07T00:28:59.424Z,17.30
2022-09-07T00:31:26.321Z,15.65
2022-09-07T00:33:53.645Z,24.00
2022-09-07T00:36:20.794Z,41.97
2022-09-07T00:38:47.533Z,26.92
2022-09-07T00:41:14.321Z,18.10
2022-09-07T00:43:47.591Z,13.40
2022-09-07T00:46:30.611Z,19.67
2022-09-07T00:49:23.797Z,22.05
2022-09-07T00:51:55.793Z,15.07
2022-09-07T00:54:29.497Z,15.18
2022-09-07T00:56:56.177Z,14.27
2022-09-07T00:59:27.035Z,13.00
2022-09-07T01:01:53.801Z,11.05
2022-09-07T01:04:20.550Z,10.93
2022-09-07T01:06:47.196Z,8.93
2022-09-07T01:09:15.682Z,9.45
2022-09-07T01:11:42.375Z,9.52
2022-09-07T01:14:10.328Z,7.13
2022-09-07T01:17:18.879Z,7.68
2022-09-07T01:19:54.434Z,7.35
2022-09-07T01:22:32.789Z,6.53
2022-09-07T01:25:04.860Z,8.52
2022-09-07T01:27:53.090Z,6.95
2022-09-07T01:30:20.117Z,7.95
2022-09-07T01:33:08.493Z,8.52
2022-09-07T01:36:13.411Z,8.55
2022-09-07T01:38:44.670Z,8.30
2022-09-07T01:41:16.284Z,7.60
2022-09-07T01:44:01.853Z,10.95
2022-09-07T01:46:30.415Z,7.55
2022-09-07T01:49:05.740Z,5.63
2022-09-07T01:51:33.556Z,6.63
2022-09-07T01:54:08.978Z,8.07
2022-09-07T01:56:38.107Z,9.13
2022-09-07T01:59:25.462Z,10.07
2022-09-07T02:02:09.336Z,8.00
2022-09-07T02:04:53.543Z,7.75
2022-09-07T02:07:33.965Z,8.43
2022-09-07T02:10:09.543Z,8.20
2022-09-07T02:12:36.209Z,8.57
2022-09-07T02:15:06.036Z,7.95
2022-09-07T02:17:34.335Z,6.47
2022-09-07T02:20:10.443Z,6.97
2022-09-07T02:22:39.829Z,7.53
2022-09-07T02:25:06.744Z,9.32
2022-09-07T02:27:41.402Z,6.55
2022-09-07T02:30:08.677Z,7.25
2022-09-07T02:32:35.372Z,6.80
2022-09-07T02:35:02.156Z,7.55
2022-09-07T02:37:29.070Z,9.68
2022-09-07T02:39:55.946Z,7.05
2022-09-07T02:42:22.777Z,6.18
2022-09-07T02:44:49.483Z,5.70
2022-09-07T02:47:42.811Z,6.60
2022-09-07T02:50:21.486Z,6.85
2022-09-07T02:53:17.533Z,7.22
2022-09-07T02:55:56.832Z,8.82
2022-09-07T02:58:49.421Z,6.75
2022-09-07T03:01:25.175Z,6.65
2022-09-07T03:03:59.798Z,10.23
2022-09-07T03:06:32.880Z,8.95
2022-09-07T03:08:59.647Z,9.70
2022-09-07T03:11:26.396Z,10.25
2022-09-07T03:13:53.092Z,11.55
2022-09-07T03:16:19.815Z,11.63
2022-09-07T03:18:46.590Z,9.30
2022-09-07T03:21:13.211Z,10.73
2022-09-07T03:23:39.841Z,11.50
2022-09-07T03:26:06.458Z,10.85
2022-09-07T03:28:33.114Z,13.10
2022-09-07T03:31:01.037Z,11.57
2022-09-07T03:33:27.771Z,11.85
2022-09-07T03:35:59.021Z,12.63
2022-09-07T03:38:25.718Z,12.77
2022-09-07T03:41:02.457Z,14.07
2022-09-07T03:43:29.659Z,17.42
2022-09-07T03:46:00.529Z,14.65
2022-09-07T03:48:31.088Z,13.98
2022-09-07T03:51:02.459Z,13.20
2022-09-07T03:53:39.987Z,12.18
2022-09-07T03:56:08.161Z,15.13
2022-09-07T03:58:35.105Z,17.25
2022-09-07T04:01:06.320Z,13.23
2022-09-07T04:03:33.160Z,15.13
2022-09-07T04:06:00.478Z,10.50
2022-09-07T04:08:28.194Z,13.77
2022-09-07T04:10:56.604Z,14.65
2022-09-07T04:13:23.962Z,17.55
2022-09-07T04:15:53.790Z,11.18
2022-09-07T04:18:20.765Z,13.57
2022-09-07T04:20:47.569Z,14.85
2022-09-07T04:23:14.226Z,12.13
2022-09-07T04:25:50.723Z,15.00
2022-09-07T04:28:17.882Z,18.58
2022-09-07T04:30:44.713Z,15.80
2022-09-07T04:33:11.485Z,19.00
2022-09-07T04:35:41.727Z,16.42
2022-09-07T04:38:12.371Z,14.93
2022-09-07T04:40:39.016Z,18.25
2022-09-07T04:43:05.714Z,15.57
2022-09-07T04:45:32.369Z,17.95
2022-09-07T04:47:59.083Z,14.90
2022-09-07T04:50:25.760Z,21.75
2022-09-07T04:52:52.540Z,19.50
2022-09-07T04:55:21.385Z,18.08
2022-09-07T04:57:51.200Z,19.85
2022-09-07T05:00:18.135Z,14.95
2022-09-07T05:02:44.854Z,19.08
2022-09-07T05:05:11.897Z,22.70
2022-09-07T05:07:38.579Z,21.45
2022-09-07T05:10:05.532Z,21.50
2022-09-07T05:12:34.310Z,18.48
2022-09-07T05:15:00.974Z,19.42
2022-09-07T05:17:27.730Z,21.58
2022-09-07T05:19:54.386Z,21.23
2022-09-07T05:22:21.057Z,23.17
2022-09-07T05:24:48.004Z,22.85
2022-09-07T05:27:14.657Z,20.08
2022-09-07T05:32:28.092Z,22.33
2022-09-07T05:34:54.730Z,16.70
2022-09-07T05:37:21.455Z,21.83
2022-09-07T05:39:48.313Z,17.70
2022-09-07T05:42:15.172Z,20.35
2022-09-07T05:47:09.607Z,14.75
2022-09-07T05:49:36.313Z,22.05
2022-09-07T05:52:03.337Z,17.20
2022-09-07T05:54:30.000Z,18.85
2022-09-07T05:56:56.688Z,20.77
2022-09-07T05:59:23.377Z,18.98
2022-09-07T06:01:50.292Z,19.08
2022-09-07T06:04:17.026Z,19.27
2022-09-07T06:07:04.541Z,17.08
2022-09-07T06:09:33.202Z,20.58
2022-09-07T06:11:59.878Z,20.88
2022-09-07T06:14:26.506Z,19.75
2022-09-07T06:16:53.191Z,19.10
2022-09-07T06:19:19.895Z,17.33
2022-09-07T06:21:46.520Z,24.33
2022-09-07T06:24:13.293Z,19.23
2022-09-07T06:26:39.956Z,22.77
2022-09-07T06:29:06.584Z,24.83
2022-09-07T06:31:33.462Z,21.52
2022-09-07T06:34:00.328Z,21.67
2022-09-07T06:36:27.431Z,18.05
2022-09-07T06:38:54.655Z,18.95
2022-09-07T06:44:12.665Z,24.73
2022-09-07T06:49:26.061Z,24.58
2022-09-07T06:51:52.815Z,25.85
2022-09-07T06:57:06.291Z,26.90
2022-09-07T06:59:32.968Z,29.92
2022-09-07T07:01:59.592Z,34.33
2022-09-07T07:04:26.264Z,32.55
2022-09-07T07:06:52.914Z,31.42
2022-09-07T07:09:19.560Z,28.85
2022-09-07T07:11:46.339Z,32.20
2022-09-07T07:14:16.157Z,29.90
2022-09-07T07:16:42.922Z,31.33
2022-09-07T07:19:09.703Z,30.92
2022-09-07T07:21:55.232Z,32.80
2022-09-07T07:24:23.317Z,31.70
2022-09-07T07:26:49.955Z,30.40
2022-09-07T07:29:18.718Z,35.45
2022-09-07T07:31:46.099Z,27.65
2022-09-07T07:34:12.764Z,34.58
2022-09-07T07:36:39.423Z,31.08
2022-09-07T07:39:06.074Z,29.10
2022-09-07T07:44:19.577Z,36.90
2022-09-07T07:46:50.516Z,35.67
2022-09-07T07:49:17.464Z,32.17
2022-09-07T07:54:32.473Z,30.30
2022-09-07T07:56:59.074Z,32.08
2022-09-07T07:59:25.856Z,32.72
2022-09-07T08:01:52.636Z,32.70
2022-09-07T08:04:19.328Z,27.92
2022-09-07T08:06:45.974Z,31.00
2022-09-07T08:09:12.568Z,28.50
2022-09-07T08:11:39.230Z,27.52
2022-09-07T08:14:06.155Z,24.77
2022-09-07T08:16:33.102Z,28.95
2022-09-07T08:18:59.826Z,24.77
2022-09-07T08:21:26.594Z,21.35
2022-09-07T08:23:56.007Z,22.02
2022-09-07T08:26:22.643Z,20.08
2022-09-07T08:28:49.285Z,22.35
2022-09-07T08:31:16.207Z,18.80
2022-09-07T08:33:43.024Z,18.40
2022-09-07T08:36:17.140Z,17.63
2022-09-07T08:38:43.816Z,12.15
2022-09-07T08:41:40.824Z,15.35
2022-09-07T08:44:18.314Z,11.57
2022-09-07T08:46:49.569Z,15.40
2022-09-07T08:49:30.429Z,10.13
2022-09-07T08:52:02.571Z,10.50
2022-09-07T08:54:29.347Z,11.10
2022-09-07T08:59:47.171Z,10.30
2022-09-07T09:02:35.141Z,11.27
2022-09-07T09:05:18.308Z,8.95
2022-09-07T09:08:00.989Z,8.70
2022-09-07T09:10:33.879Z,10.48
2022-09-07T09:13:09.349Z,8.05
2022-09-07T09:16:05.927Z,8.40
2022-09-07T09:19:14.961Z,8.68
2022-09-07T09:21:41.620Z,6.90
2022-09-07T09:24:17.291Z,5.95
2022-09-07T09:29:20.076Z,7.47
2022-09-07T09:31:46.801Z,7.22
2022-09-07T09:34:17.594Z,6.20
2022-09-07T09:36:49.606Z,7.68
2022-09-07T09:39:42.404Z,7.28
2022-09-07T09:42:11.867Z,8.73
2022-09-07T09:44:38.492Z,6.95
2022-09-07T09:49:52.307Z,6.32
2022-09-07T09:52:43.958Z,6.70
2022-09-07T10:01:31.437Z,6.95
2022-09-07T10:03:56.729Z,9.00
2022-09-07T10:06:24.929Z,7.28
2022-09-07T10:08:58.744Z,6.80
2022-09-07T10:14:42.968Z,6.95
2022-09-07T10:17:36.608Z,8.48
2022-09-07T10:20:15.462Z,7.00
2022-09-07T10:22:51.801Z,6.28
2022-09-07T10:25:27.950Z,5.72
2022-09-07T10:28:10.567Z,5.25
2022-09-07T10:30:52.372Z,8.27
2022-09-07T10:33:43.965Z,6.60
2022-09-07T10:36:39.388Z,4.82
2022-09-07T10:39:13.162Z,6.25
2022-09-07T10:41:58.531Z,6.50
2022-09-07T10:44:30.871Z,8.32
2022-09-07T10:47:01.249Z,8.38
2022-09-07T10:49:40.929Z,5.78
2022-09-07T10:52:17.328Z,6.15
2022-09-07T10:54:55.219Z,4.50
2022-09-07T10:57:33.894Z,5.40
2022-09-07T11:00:08.117Z,5.15
2022-09-07T11:05:52.343Z,5.55
2022-09-07T11:09:15.817Z,5.55
2022-09-07T11:14:21.281Z,7.40
2022-09-07T11:17:15.573Z,6.32
2022-09-07T11:20:03.477Z,5.22
2022-09-07T11:22:44.468Z,9.60
2022-09-07T11:25:33.643Z,6.13
2022-09-07T11:28:27.174Z,5.65
2022-09-07T11:33:41.290Z,5.88
2022-09-07T11:36:12.035Z,5.35
2022-09-07T11:38:50.995Z,7.80
2022-09-07T11:41:28.546Z,7.50
2022-09-07T11:44:42.933Z,6.30
2022-09-07T11:47:16.454Z,5.22
2022-09-07T11:49:45.387Z,6.10
2022-09-07T11:52:26.317Z,6.90
2022-09-07T11:54:58.031Z,5.28
2022-09-07T11:57:39.751Z,4.45
2022-09-07T12:00:14.159Z,8.10
2022-09-07T12:03:00.818Z,4.85
2022-09-07T12:05:33.960Z,6.93
2022-09-07T12:08:12.922Z,4.75
2022-09-07T12:10:55.123Z,4.80
2022-09-07T12:13:56.645Z,6.28
2022-09-07T12:16:40.927Z,5.30
2022-09-07T12:19:19.724Z,5.88
2022-09-07T12:22:18.997Z,5.65
2022-09-07T12:24:47.626Z,6.35
2022-09-07T12:27:20.020Z,5.35
2022-09-07T12:29:50.412Z,4.25
2022-09-07T12:32:56.496Z,6.68
2022-09-07T12:35:30.247Z,7.35
2022-09-07T12:38:00.523Z,7.97
2022-09-07T12:40:36.277Z,5.47
2022-09-07T12:43:15.144Z,5.53
2022-09-07T12:45:41.733Z,6.93
2022-09-07T12:48:14.514Z,6.38
2022-09-07T12:50:51.055Z,8.90
2022-09-07T12:53:17.729Z,6.55
2022-09-07T12:58:49.942Z,5.50
2022-09-07T13:01:50.569Z,7.82
2022-09-07T13:04:36.240Z,8.15
2022-09-07T13:07:24.083Z,6.28
2022-09-07T13:09:58.038Z,7.00
2022-09-07T13:12:53.944Z,9.63
2022-09-07T13:15:57.364Z,7.30
2022-09-07T13:18:27.120Z,7.10
2022-09-07T13:21:17.090Z,7.18
2022-09-07T13:27:05.602Z,6.75
2022-09-07T13:29:41.538Z,8.88
2022-09-07T13:35:19.374Z,9.73
2022-09-07T13:37:50.559Z,7.30
2022-09-07T13:40:28.541Z,5.50
2022-09-07T13:42:55.833Z,4.80
2022-09-07T13:45:29.756Z,8.75
2022-09-07T13:48:01.962Z,7.47
2022-09-07T13:50:45.850Z,7.28
2022-09-07T13:53:26.321Z,7.13
2022-09-07T13:56:14.310Z,6.28
2022-09-07T13:58:42.101Z,8.45
2022-09-07T14:01:23.402Z,6.40
2022-09-07T14:03:57.994Z,7.93
2022-09-07T14:06:28.125Z,4.57
2022-09-07T14:09:00.022Z,6.72
2022-09-07T14:11:28.936Z,6.80
2022-09-07T14:14:20.716Z,8.40
2022-09-07T14:16:53.549Z,4.93
2022-09-07T14:19:40.521Z,5.22
2022-09-07T14:22:18.359Z,5.75
2022-09-07T14:24:55.771Z,4.82
2022-09-07T14:27:35.918Z,6.40
2022-09-07T14:30:14.663Z,6.55
2022-09-07T14:32:41.334Z,9.68
2022-09-07T14:35:15.731Z,6.03
2022-09-07T14:37:42.480Z,7.15
2022-09-07T14:40:20.121Z,5.80
2022-09-07T14:42:46.842Z,5.88
2022-09-07T14:45:32.790Z,6.28
2022-09-07T14:47:59.629Z,5.88
2022-09-07T14:50:36.108Z,5.88
2022-09-07T14:56:07.539Z,6.00
2022-09-07T14:58:34.142Z,8.32
2022-09-07T15:01:37.796Z,6.70
2022-09-07T15:04:18.935Z,8.30
2022-09-07T15:07:01.339Z,6.80
2022-09-07T15:09:31.292Z,5.65
2022-09-07T15:12:36.455Z,7.13
2022-09-07T15:15:21.839Z,7.20
2022-09-07T15:17:49.737Z,7.53
2022-09-07T15:20:32.362Z,7.80
2022-09-07T15:22:59.405Z,7.95
2022-09-07T15:25:27.310Z,7.07
2022-09-07T15:27:54.696Z,9.38
2022-09-07T15:30:21.461Z,5.18
2022-09-07T15:32:49.495Z,5.57
2022-09-07T15:35:16.219Z,9.38
2022-09-07T15:40:29.677Z,9.02
2022-09-07T15:42:59.955Z,6.45
2022-09-07T15:45:27.058Z,9.55
2022-09-07T15:47:53.838Z,7.35
2022-09-07T15:50:20.863Z,6.05
2022-09-07T15:52:49.704Z,6.88
2022-09-07T15:55:17.392Z,8.27
2022-09-07T15:57:48.788Z,7.22
2022-09-07T16:00:17.032Z,8.35
2022-09-07T16:05:33.246Z,6.95
2022-09-07T16:10:53.511Z,7.07
2022-09-07T16:13:20.541Z,8.52
2022-09-07T16:15:47.587Z,6.28
2022-09-07T16:18:18.084Z,8.85
2022-09-07T16:20:45.074Z,6.25
2022-09-07T16:23:14.305Z,6.68
2022-09-07T16:25:41.961Z,6.80
2022-09-07T16:28:08.671Z,9.48
2022-09-07T16:30:39.106Z,8.50
2022-09-07T16:33:05.891Z,7.35
2022-09-07T16:35:32.554Z,5.78
2022-09-07T16:40:45.927Z,6.30
2022-09-07T16:43:12.574Z,4.38
2022-09-07T16:48:25.839Z,6.47
2022-09-07T16:50:58.709Z,6.55
2022-09-07T16:53:28.845Z,5.32
2022-09-07T16:56:08.378Z,8.95
2022-09-07T16:58:47.278Z,8.48
2022-09-07T17:01:15.923Z,6.03
2022-09-07T17:03:42.918Z,5.40
2022-09-07T17:06:10.502Z,7.13
2022-09-07T17:08:37.422Z,8.52
2022-09-07T17:11:07.758Z,8.20
2022-09-07T17:13:35.186Z,4.93
2022-09-07T17:16:06.250Z,8.65
2022-09-07T17:21:19.882Z,7.50
2022-09-07T17:23:54.403Z,8.52
2022-09-07T17:28:50.306Z,7.82
2022-09-07T17:34:05.416Z,9.52
2022-09-07T17:36:32.025Z,6.70
2022-09-07T17:41:49.738Z,6.00
2022-09-07T17:44:16.779Z,7.60
2022-09-07T17:46:43.512Z,7.72
2022-09-07T17:49:10.431Z,9.35
2022-09-07T17:51:37.151Z,6.20
2022-09-07T17:54:09.695Z,10.70
2022-09-07T17:56:36.629Z,10.10
2022-09-07T18:01:50.583Z,9.23
2022-09-07T18:04:17.389Z,6.90
2022-09-07T18:06:44.090Z,10.93
2022-09-07T18:09:11.232Z,8.27
2022-09-07T18:11:46.880Z,6.60
2022-09-07T18:14:15.021Z,5.75
2022-09-07T18:16:42.088Z,11.07
2022-09-07T18:19:08.806Z,6.72
2022-09-07T18:21:36.434Z,8.13
2022-09-07T18:24:07.561Z,9.95
2022-09-07T18:26:35.542Z,8.45
2022-09-07T18:29:04.185Z,6.28
2022-09-07T18:31:31.197Z,7.40
2022-09-07T18:33:58.043Z,12.82
2022-09-07T18:36:25.375Z,7.47
2022-09-07T18:38:52.147Z,5.10
2022-09-07T18:41:18.871Z,7.47
2022-09-07T18:43:45.643Z,9.18
2022-09-07T18:46:19.477Z,13.13
2022-09-07T18:48:46.368Z,8.52
2022-09-07T18:51:13.397Z,8.63
2022-09-07T18:53:40.256Z,6.22
2022-09-07T18:56:08.706Z,7.22
2022-09-07T18:58:35.465Z,8.40
2022-09-07T19:01:06.592Z,7.07
2022-09-07T19:03:33.918Z,16.48
2022-09-07T19:06:05.243Z,7.65
2022-09-07T19:08:32.862Z,10.45
2022-09-07T19:11:05.890Z,9.02
2022-09-07T19:13:33.277Z,9.60
2022-09-07T19:16:10.933Z,9.15
2022-09-07T19:18:37.812Z,6.95
2022-09-07T19:21:05.744Z,7.28
2022-09-07T19:23:32.537Z,8.02
2022-09-07T19:26:00.968Z,7.32
2022-09-07T19:28:27.738Z,9.25
2022-09-07T19:30:54.705Z,6.30
2022-09-07T19:33:21.982Z,12.10
2022-09-07T19:35:48.744Z,7.43
2022-09-07T19:38:15.381Z,8.27
2022-09-07T19:40:44.050Z,10.02
2022-09-07T19:43:10.695Z,8.60
2022-09-07T19:45:38.148Z,9.52
2022-09-07T19:48:04.804Z,12.63
2022-09-07T19:50:33.114Z,10.43
2022-09-07T19:52:59.895Z,6.38
2022-09-07T19:55:27.682Z,9.48
2022-09-07T19:57:54.373Z,7.22
2022-09-07T20:00:21.197Z,7.25
2022-09-07T20:02:49.487Z,4.82
2022-09-07T20:05:17.381Z,8.38
2022-09-07T20:07:44.141Z,8.70
2022-09-07T20:10:10.873Z,6.90
2022-09-07T20:12:37.501Z,7.85
2022-09-07T20:15:04.579Z,7.65
2022-09-07T20:17:35.062Z,11.50
2022-09-07T20:20:02.413Z,7.13
2022-09-07T20:22:29.072Z,7.28
2022-09-07T20:24:55.729Z,7.28
2022-09-07T20:27:22.431Z,7.80
2022-09-07T20:29:49.411Z,6.95
2022-09-07T20:32:16.087Z,9.00
2022-09-07T20:34:42.882Z,7.60
2022-09-07T20:37:09.529Z,8.80
2022-09-07T20:39:39.355Z,6.95
2022-09-07T20:42:06.685Z,8.73
2022-09-07T20:44:33.352Z,7.95
2022-09-07T20:47:00.328Z,11.18
2022-09-07T20:49:28.617Z,11.05
2022-09-07T20:51:55.430Z,8.70
2022-09-07T20:54:22.158Z,10.27
2022-09-07T20:56:48.818Z,6.85
2022-09-07T20:59:15.497Z,6.82
2022-09-07T21:01:42.395Z,10.30
2022-09-07T21:04:09.237Z,10.38
2022-09-07T21:06:36.003Z,7.70
2022-09-07T21:09:02.781Z,8.45
2022-09-07T21:11:33.780Z,8.10
2022-09-07T21:14:08.267Z,10.63
2022-09-07T21:16:35.619Z,9.10
2022-09-07T21:19:02.922Z,9.82
2022-09-07T21:21:29.901Z,7.75
2022-09-07T21:23:57.436Z,11.27
2022-09-07T21:26:24.342Z,8.77
2022-09-07T21:28:58.135Z,8.98
2022-09-07T21:31:25.034Z,8.73
2022-09-07T21:33:59.441Z,11.23
2022-09-07T21:36:26.235Z,11.30
2022-09-07T21:38:52.957Z,11.15
2022-09-07T21:41:20.326Z,12.48
2022-09-07T21:43:47.110Z,8.65
2022-09-07T21:46:17.501Z,9.90
2022-09-07T21:48:47.201Z,12.13
2022-09-07T21:51:14.083Z,7.95
2022-09-07T21:53:41.220Z,12.48
2022-09-07T21:56:12.702Z,10.40
2022-09-07T21:58:39.459Z,10.07
2022-09-07T22:01:16.720Z,10.18
2022-09-07T22:03:47.385Z,10.13
2022-09-07T22:06:14.202Z,6.40
2022-09-07T22:08:41.128Z,7.30
2022-09-07T22:11:12.605Z,9.18
2022-09-07T22:13:39.322Z,9.50
2022-09-07T22:16:06.320Z,10.75
2022-09-07T22:18:33.325Z,10.55
2022-09-07T22:21:11.078Z,10.70
2022-09-07T22:23:42.513Z,8.75
2022-09-07T22:26:09.478Z,10.07
2022-09-07T22:28:36.532Z,10.25
2022-09-07T22:31:14.044Z,10.93
2022-09-07T22:33:41.317Z,8.13
2022-09-07T22:36:22.042Z,9.77
2022-09-07T22:38:50.483Z,7.70
2022-09-07T22:41:21.421Z,8.90
2022-09-07T22:43:48.122Z,9.50
2022-09-07T22:46:14.961Z,10.45
2022-09-07T22:48:41.705Z,6.72
2022-09-07T22:51:08.512Z,10.75
2022-09-07T22:53:36.350Z,8.77
2022-09-07T22:56:07.307Z,7.93
2022-09-07T22:58:34.198Z,11.40
2022-09-07T23:01:00.901Z,10.73
2022-09-07T23:03:31.670Z,9.68
2022-09-07T23:05:58.626Z,7.95
2022-09-07T23:08:25.315Z,9.82
2022-09-07T23:10:52.558Z,10.20
2022-09-07T23:13:19.793Z,10.27
2022-09-07T23:15:46.695Z,9.85
2022-09-07T23:18:16.742Z,10.38
2022-09-07T23:20:43.594Z,8.13
2022-09-07T23:23:10.454Z,6.30
2022-09-07T23:25:37.772Z,8.07
2022-09-07T23:28:05.006Z,9.18
2022-09-07T23:30:31.641Z,8.70
2022-09-07T23:32:58.284Z,7.30
2022-09-07T23:35:24.941Z,10.20
2022-09-07T23:37:51.545Z,8.48
2022-09-07T23:40:21.167Z,11.15
2022-09-07T23:42:48.057Z,6.82
2022-09-07T23:45:15.022Z,6.75
2022-09-07T23:47:41.695Z,9.18
2022-09-07T23:50:09.283Z,8.05
2022-09-07T23:52:35.900Z,8.05
2022-09-07T23:55:02.574Z,7.70
2022-09-07T23:57:29.181Z,9.10
2022-09-07T23:59:55.843Z,9.43
